AirNav   Phillips 66 Aviation Fuel
 
 1227 users online  

2UT3 Fort Ranch Airport
Brigham City, Utah, USA


FAA INFORMATION EFFECTIVE 12 OCTOBER 2017

Location

FAA Identifier: 2UT3
Lat/Long: 41-29-31.8000N / 112-35-28.2000W
41-29.530000N / 112-35.470000W
41.4921667 / -112.5911667
(estimated)
Elevation: 4440 ft. / 1353 m (estimated)
Variation: 14E (2000)
From city: 25 miles SW of BRIGHAM CITY, UT
Time zone: UTC -6 (UTC -7 during Standard Time)
Zip code: 84307

Airport Operations

Airport use: Private use. Permission required prior to landing
Activation date: 07/2002
Control tower: no
ARTCC: SALT LAKE CITY CENTER
FSS: CEDAR CITY FLIGHT SERVICE STATION
Attendance: UNATNDD
Wind indicator: yes
Segmented circle: no

Nearby radio navigation aids

VOR radial/distance  VOR name  Freq  Var
OGDr292/27.4OGDEN VORTAC115.7014E
LHOr221/31.7BRIGHAM CITY VOR/DME112.9014E

Airport Services

Runway Information

Runway 16/34

Dimensions: 3000 x 50 ft. / 914 x 15 m
Surface: gravel
RUNWAY 16  RUNWAY 34
Traffic pattern: rightleft

Airport Ownership and Management from official FAA records

Ownership: Privately-owned
Owner: RIVERBEND ENTERPRISES INC.
P.O. BOX 50126
IDAHO FALLS, ID 83405
Phone 208-522-0085
Manager: WILL MILHAM
280 INT'L WAY
IDAHO FALLS, ID 83402
Phone 208-522-0085

Additional Remarks

OWNER DESIRES ARPT NOT BE CHARTED.

Instrument Procedures

There are no published instrument procedures at 2UT3.

Some nearby airports with instrument procedures:

KBMC - Brigham City Airport (24 nm E)
KOGD - Ogden-Hinckley Airport (32 nm SE)
KHIF - Hill Air Force Base (36 nm SE)
KLGU - Logan-Cache Airport (38 nm NE)
KSLC - Salt Lake City International Airport (51 nm SE)
 
Loc | Ops | Rwys | IFR | FBO | Links
Com | Nav | Svcs | Stats | Notes


 
Area around 2UT3 (Fort Ranch Airport)
 
Road maps at: MapQuest Bing Google
 
Aerial photo
No photo
 
Sectional chart

 
Airport distance calculator
Flying to Fort Ranch Airport? Find the distance to fly.

From to 2UT3

Sunrise and sunset
Times for 19-Oct-2017
 Local
(UTC-6)
 Zulu
(UTC)
Morning civil twilight07:2013:20
Sunrise07:4813:48
Sunset18:4300:43
Evening civil twilight19:1101:11

Current date and time
Zulu (UTC)  19-Oct-2017 22:09:36
Local (UTC-6)  19-Oct-2017 16:09:36
 
METAR
KBMC 
24nm E 
192155Z AUTO 27003KT 10SM CLR 21/M07 A2988 RMK AO1 T02071073
KOGD 
31nm SE 
192153Z VRB03KT 10SM CLR 22/M05 A2987 RMK AO2 SLP078 T02221050
KU16 
34nm SW 
191858Z AUTO 00000KT 10SM CLR 16/M04 A2995 RMK AO2 SLP768 T01611039 $
KHIF 
36nm SE 
192158Z 23006KT 10SM CLR 21/M03 A2989 RMK AO2A SLP082 T02101035
KLGU 
38nm NE 
192151Z AUTO 23004KT 10SM CLR 22/M06 A2988 RMK AO2 SLP093 T02221061
TAF
KOGD 
31nm SE 
191745Z 1918/2018 17007KT P6SM SKC FM192000 24008KT P6SM SKC FM200200 17011G18KT P6SM SCT200 FM201700 28018G26KT P6SM OVC100
KHIF 
36nm SE 
191303Z 1913/2019 11012G18KT 9999 SKC 520009 QNH2985INS BECMG 1917/1918 18009KT 9999 FEW200 QNH2984INS BECMG 1922/1923 18012G18KT 9999 FEW080 SCT200 QNH2981INS BECMG 2002/2003 18015G25KT 9999 FEW080 SCT200 520009 QNH2960INS BECMG 2017/2018 29015G25KT 8000 -SHRA BKN020 OVC030 520009 QNH2969INS TX21/1922Z TN08/1913Z
KLGU 
38nm NE 
191745Z 1918/2018 VRB05KT P6SM SKC FM201200 18010KT P6SM SCT100 FM201700 27018G26KT P6SM VCSH BKN050
NOTAMs
Click for the latest NOTAMs
NOTAMs are issued by the DoD/FAA and will open in a separate window not controlled by AirNav.

 

 
 

Would you like to see your business listed on this page?

 If your business provides an interesting product or service to pilots, flight crews, aircraft, or users of the Fort Ranch Airport, you should consider listing it here.  To start the listing process, click on the button below
 
Add a business
 

Other Pages about Fort Ranch Airport

Update a link
 
Copyright © AirNav, LLC. All rights reserved. Privacy Policy  Contact